Kentfield, California
Current Conditions -  °F | °C
As of 11:55 AM on Saturday 20 Dec 2014 (Local Time) from KDVO Reporting Station
Haze Haze  
Wind Chill: 57°   Ceiling: 5500
Heat Index: 57°   Visibility: 5mi
Dew Point: 55°   Wind: 0mph
Humidity: 94%   Direction: NA
Pressure: 30.22"   Gusts: NA
Location:  37.95°N, 122.54°W
Report Text: KDVO 201955Z AUTO 00000KT 5SM BR SCT006 SCT023 BKN055 14/13 A3022 RMK AO2
Loading
Personal Weather Stations






























Interactive Weather Map New forecast layout! Learn more

10-Day Weather Forecast

Advertisements
Track Severe Weather on mobile